Time;durP1;ratioP1;P1;durP2;ratioP2;P2;SDS_P1;SDS_P2;PMS_P1;PMS_P2;Temp;Humidity;BMP_temperature;BMP_pressure;BME280_temperature;BME280_humidity;BME280_pressure;Samples;Min_cycle;Max_cycle;Signal;HPM_P1;HPM_P2
2023/04/24 00:01:43;;;;;;;0.90;0.90;;;;;;;10.34;80.08;94555.03;6162552;23;20165;-80
2023/04/24 00:04:10;;;;;;;3.43;1.00;;;;;;;10.32;80.67;94559.56;6185950;23;20180;-81
2023/04/24 00:06:36;;;;;;;1.57;0.77;;;;;;;10.24;81.13;94557.81;6187337;23;20162;-81
2023/04/24 00:09:05;;;;;;;2.33;1.00;;;;;;;10.41;80.47;94561.94;6186931;23;20586;-81
2023/04/24 00:11:30;;;;;;;2.10;0.93;;;;;;;10.41;80.77;94567.13;6186944;23;20154;-82
2023/04/24 00:13:58;;;;;;;4.73;1.07;;;;;;;10.41;80.10;94571.53;6187388;23;20165;-82
2023/04/24 00:16:24;;;;;;;1.07;0.93;;;;;;;10.21;81.52;94586.66;6186209;23;20181;-82
2023/04/24 00:18:49;;;;;;;2.93;1.00;;;;;;;10.23;81.75;94571.78;6213516;23;20174;-83
2023/04/24 00:21:17;;;;;;;1.20;0.93;;;;;;;10.25;82.05;94576.78;6162539;23;20181;-82
2023/04/24 00:23:43;;;;;;;1.20;1.03;;;;;;;10.21;81.80;94571.09;6187644;23;20177;-82
2023/04/24 00:26:09;;;;;;;1.93;0.80;;;;;;;10.15;82.58;94571.78;6186772;23;20161;-83
2023/04/24 00:28:34;;;;;;;1.33;0.70;;;;;;;10.11;83.51;94573.09;6187960;23;20762;-82
2023/04/24 00:30:59;;;;;;;1.63;0.80;;;;;;;10.11;83.49;94576.50;6163226;23;20169;-82
2023/04/24 00:33:25;;;;;;;1.63;1.00;;;;;;;10.20;82.94;94565.09;6189087;23;20154;-82
2023/04/24 00:35:50;;;;;;;2.13;0.93;;;;;;;10.27;82.86;94564.47;6163706;23;20242;-84
2023/04/24 00:38:18;;;;;;;0.80;0.80;;;;;;;10.25;82.99;94564.66;6165336;23;20240;-83
2023/04/24 00:40:44;;;;;;;2.03;0.80;;;;;;;10.08;83.63;94557.88;6188235;23;20185;-82
2023/04/24 00:43:09;;;;;;;4.03;0.93;;;;;;;10.11;83.84;94563.53;6188155;23;20166;-82
2023/04/24 00:45:35;;;;;;;1.30;0.90;;;;;;;10.24;83.42;94564.78;6213562;23;20150;-81
2023/04/24 00:48:01;;;;;;;1.63;0.70;;;;;;;10.25;83.43;94562.06;6187461;23;20200;-82
2023/04/24 00:50:27;;;;;;;2.73;1.00;;;;;;;10.30;82.71;94567.53;6163100;23;20158;-82
2023/04/24 00:52:52;;;;;;;4.13;0.93;;;;;;;10.25;83.18;94569.00;6188326;23;20184;-82
2023/04/24 00:55:18;;;;;;;1.37;0.93;;;;;;;10.26;82.93;94568.84;6163205;23;20181;-82
2023/04/24 00:57:44;;;;;;;1.80;0.83;;;;;;;10.30;82.79;94564.13;6187109;23;20264;-82
2023/04/24 01:00:12;;;;;;;1.23;1.00;;;;;;;10.33;83.04;94563.78;6163580;23;20185;-82
2023/04/24 01:02:40;;;;;;;1.37;1.10;;;;;;;10.33;83.25;94559.38;6189182;23;20161;-83
2023/04/24 01:05:07;;;;;;;1.10;1.00;;;;;;;10.34;82.70;94550.66;6187109;23;20593;-82
2023/04/24 01:07:33;;;;;;;4.53;1.10;;;;;;;10.25;84.20;94541.28;6162364;23;20255;-81
2023/04/24 01:09:58;;;;;;;4.07;1.07;;;;;;;10.28;83.90;94551.31;6188127;23;20153;-82
2023/04/24 01:12:24;;;;;;;1.80;0.87;;;;;;;10.31;84.00;94545.78;6163111;23;20173;-82
2023/04/24 01:14:49;;;;;;;2.63;1.00;;;;;;;10.32;83.75;94541.41;6162885;23;20162;-82
2023/04/24 01:17:15;;;;;;;0.93;0.80;;;;;;;10.10;84.41;94540.34;6162971;23;20200;-82
2023/04/24 01:19:40;;;;;;;2.43;1.00;;;;;;;10.15;83.90;94538.03;6162931;23;20542;-81
2023/04/24 01:22:11;;;;;;;2.07;0.77;;;;;;;10.25;83.10;94540.47;6188507;23;20168;-82
2023/04/24 01:24:37;;;;;;;1.70;0.90;;;;;;;10.19;83.26;94536.75;6187841;23;20157;-83
2023/04/24 01:27:02;;;;;;;2.60;0.97;;;;;;;9.87;84.85;94535.91;6162375;23;20158;-82
2023/04/24 01:29:28;;;;;;;1.63;1.03;;;;;;;9.97;84.63;94538.28;6163084;23;20512;-82
2023/04/24 01:31:53;;;;;;;2.20;1.33;;;;;;;9.91;85.21;94537.19;6187893;23;20161;-81
2023/04/24 01:34:19;;;;;;;5.20;1.80;;;;;;;9.99;85.15;94535.53;6187943;23;20734;-81
2023/04/24 01:36:46;;;;;;;0.77;0.77;;;;;;;9.96;84.56;94536.66;6186858;23;20180;-80
2023/04/24 01:39:12;;;;;;;0.73;0.67;;;;;;;10.07;84.45;94532.88;6163165;23;20185;-81
2023/04/24 01:41:37;;;;;;;1.13;0.87;;;;;;;9.98;85.17;94521.75;6187885;23;20162;-81
2023/04/24 01:44:02;;;;;;;1.37;0.80;;;;;;;10.08;84.26;94529.34;6162773;23;20165;-81
2023/04/24 01:46:28;;;;;;;2.53;1.10;;;;;;;10.09;84.82;94533.56;6162142;23;20710;-81
2023/04/24 01:48:53;;;;;;;2.67;1.17;;;;;;;10.07;84.50;94528.53;6163057;23;20265;-81
2023/04/24 01:51:19;;;;;;;1.80;1.13;;;;;;;9.96;85.27;94525.50;6163161;23;20166;-81
2023/04/24 01:53:44;;;;;;;0.80;0.80;;;;;;;10.11;84.59;94524.63;6162853;23;20153;-81
2023/04/24 01:56:09;;;;;;;2.77;0.80;;;;;;;10.19;84.65;94524.59;6161392;23;20185;-81
2023/04/24 01:58:35;;;;;;;1.73;0.97;;;;;;;10.19;84.47;94523.78;6162501;23;20522;-81
2023/04/24 02:01:01;;;;;;;1.27;1.00;;;;;;;10.23;84.17;94532.03;6187368;23;20165;-81
2023/04/24 02:03:26;;;;;;;1.50;1.23;;;;;;;10.12;84.77;94533.22;6161567;23;20554;-80
2023/04/24 02:05:51;;;;;;;2.60;1.00;;;;;;;10.17;85.60;94533.53;6161949;23;20248;-81
2023/04/24 02:08:17;;;;;;;1.33;0.90;;;;;;;10.07;86.83;94538.06;6162635;23;20661;-81
2023/04/24 02:10:42;;;;;;;2.13;1.30;;;;;;;10.26;86.81;94540.31;6162784;23;20188;-81
2023/04/24 02:13:07;;;;;;;2.23;0.90;;;;;;;10.09;88.61;94536.94;6162730;23;20200;-81
2023/04/24 02:15:33;;;;;;;1.97;0.90;;;;;;;10.13;88.91;94537.41;6162293;23;20260;-81
2023/04/24 02:22:19;;;;;;;2.30;1.07;;;;;;;10.01;90.75;94543.97;6153332;23;20163;-81
2023/04/24 02:36:25;;;;;;;2.10;1.03;;;;;;;9.89;89.60;94538.31;5891826;24;20273;-81
2023/04/24 02:43:08;;;;;;;2.80;0.80;;;;;;;9.65;91.69;94529.66;5812137;24;20198;-81
2023/04/24 02:58:43;;;;;;;;;;;;;;;;;;;;;
2023/04/24 03:05:55;;;;;;;2.00;1.00;;;;;;;9.62;94.70;94521.38;5976714;23;20170;-81
2023/04/24 03:13:00;;;;;;;2.73;1.10;;;;;;;9.56;94.77;94524.66;5987458;23;20174;-80
2023/04/24 03:16:18;;;;;;;1.27;1.17;;;;;;;9.53;95.18;94525.78;5898762;24;20255;-82
2023/04/24 03:19:15;;;;;;;4.00;1.37;;;;;;;9.49;95.51;94519.34;5814060;24;20678;-82
2023/04/24 03:22:37;;;;;;;1.30;0.87;;;;;;;9.45;96.26;94515.44;5814354;24;20275;-83
2023/04/24 03:32:34;;;;;;;1.83;1.37;;;;;;;9.50;97.32;94514.94;5710524;25;20562;-81
2023/04/24 03:35:21;;;;;;;2.47;1.40;;;;;;;9.35;98.52;94515.63;5750046;24;20164;-81
2023/04/24 03:38:35;;;;;;;1.93;1.20;;;;;;;9.44;99.10;94521.59;5761945;24;20216;-82
2023/04/24 03:41:28;;;;;;;2.73;1.40;;;;;;;9.50;98.49;94520.13;5771158;24;20176;-81
2023/04/24 03:44:45;;;;;;;2.63;1.53;;;;;;;9.46;99.24;94549.97;5769187;24;20176;-81
2023/04/24 04:14:19;;;;;;;1.23;1.00;;;;;;;8.54;91.93;94584.72;6016654;23;20173;-83
2023/04/24 04:16:45;;;;;;;1.30;1.20;;;;;;;8.60;92.69;94586.69;6013281;23;20193;-80
2023/04/24 04:19:10;;;;;;;1.93;1.20;;;;;;;8.39;94.32;94587.09;6013798;23;20212;-81
2023/04/24 04:21:35;;;;;;;1.70;1.30;;;;;;;8.55;93.34;94576.78;6014157;23;20161;-82
2023/04/24 04:24:01;;;;;;;2.90;1.20;;;;;;;8.68;92.39;94579.75;6021660;23;20167;-80
2023/04/24 04:26:27;;;;;;;1.33;1.20;;;;;;;8.66;92.90;94573.13;6022482;23;20164;-80
2023/04/24 04:28:52;;;;;;;4.67;1.40;;;;;;;8.60;93.28;94584.91;6022176;23;20237;-80
2023/04/24 04:31:19;;;;;;;1.40;1.30;;;;;;;8.51;93.12;94583.25;6022603;23;20181;-79
2023/04/24 04:33:45;;;;;;;2.40;1.83;;;;;;;8.59;93.43;94598.81;6008046;23;20727;-80
2023/04/24 04:36:10;;;;;;;1.43;1.33;;;;;;;8.48;93.11;94597.34;6014416;23;20190;-80
2023/04/24 04:38:36;;;;;;;2.27;1.60;;;;;;;8.57;92.55;94598.16;5984598;23;20240;-79
2023/04/24 04:41:02;;;;;;;2.20;1.47;;;;;;;8.45;92.28;94605.41;6000853;23;20171;-79
2023/04/24 04:43:28;;;;;;;5.13;2.00;;;;;;;8.51;92.11;94596.19;6056893;23;20193;-79
2023/04/24 04:45:54;;;;;;;2.63;1.80;;;;;;;8.47;92.14;94613.81;6067475;23;20227;-79
2023/04/24 04:48:19;;;;;;;2.40;1.83;;;;;;;8.47;91.95;94611.22;6121543;23;20225;-80
2023/04/24 04:50:45;;;;;;;3.00;2.20;;;;;;;8.43;92.12;94622.84;6134364;23;20163;-79
2023/04/24 04:53:10;;;;;;;1.87;1.70;;;;;;;8.41;91.94;94621.41;6161268;23;20165;-78
2023/04/24 04:55:36;;;;;;;2.20;2.00;;;;;;;8.56;91.45;94606.88;6136086;23;20182;-79
2023/04/24 04:58:01;;;;;;;2.03;1.90;;;;;;;8.68;90.77;94613.38;6159233;23;20530;-79
2023/04/24 05:00:28;;;;;;;2.47;2.27;;;;;;;8.70;90.04;94611.44;6153020;23;20170;-78
2023/04/24 05:02:54;;;;;;;4.30;2.20;;;;;;;8.68;90.68;94608.22;6134435;23;20167;-79
2023/04/24 05:05:19;;;;;;;2.50;2.00;;;;;;;8.87;89.55;94606.31;6161618;23;20485;-80
2023/04/24 05:07:45;;;;;;;2.43;2.20;;;;;;;8.73;89.20;94621.47;6160312;23;20170;-79
2023/04/24 05:10:10;;;;;;;3.27;2.37;;;;;;;8.58;89.42;94623.06;6161316;23;20748;-82
2023/04/24 05:12:35;;;;;;;2.87;2.67;;;;;;;8.67;89.11;94627.31;6140603;23;20178;-80
2023/04/24 05:15:01;;;;;;;3.33;3.03;;;;;;;8.62;89.36;94636.50;6143250;23;20158;-78
2023/04/24 05:17:26;;;;;;;3.17;2.67;;;;;;;8.62;88.12;94639.09;6168049;23;20197;-79
2023/04/24 05:19:51;;;;;;;2.70;2.50;;;;;;;8.62;88.16;94654.63;6168612;23;20221;-79
2023/04/24 05:22:18;;;;;;;2.83;2.53;;;;;;;8.74;87.98;94663.69;6169229;23;20154;-80
2023/04/24 05:24:43;;;;;;;2.63;2.43;;;;;;;8.76;87.38;94656.59;6169354;23;20170;-80
2023/04/24 05:27:09;;;;;;;5.33;2.87;;;;;;;9.09;86.61;94668.63;6194280;23;20151;-80
2023/04/24 05:29:34;;;;;;;2.93;2.53;;;;;;;9.16;84.62;94666.22;6144758;23;20534;-80
2023/04/24 05:32:09;;;;;;;5.17;2.47;;;;;;;9.37;84.46;94665.75;6145105;23;20169;-82
2023/04/24 05:35:45;;;;;;;;;;;;;;;;;;;;;
2023/04/24 08:21:16;;;;;;;3.07;2.10;;;;;;;10.34;62.04;94811.97;6153059;23;20473;31
2023/04/24 08:28:02;;;;;;;2.07;1.90;;;;;;;10.64;61.75;94824.22;6157386;23;20257;-79
2023/04/24 08:49:46;;;;;;;;;;;;;;;;;;;;;
2023/04/24 09:06:50;;;;;;;5.13;1.87;;;;;;;12.22;54.23;94859.59;5051461;28;20510;-79
2023/04/24 09:09:56;;;;;;;1.50;1.40;;;;;;;11.63;55.43;94880.09;5051879;28;20320;-79
2023/04/24 09:13:13;;;;;;;1.60;1.40;;;;;;;11.97;55.23;94851.13;5081063;28;20216;-79
2023/04/24 09:20:01;;;;;;;;;;;;;;;;;;;;;
2023/04/24 09:26:24;;;;;;;3.23;1.77;;;;;;;11.07;59.87;94866.34;5025293;28;20205;-79
2023/04/24 09:29:34;;;;;;;2.77;1.67;;;;;;;10.58;60.60;94870.81;5000126;28;20215;-80
2023/04/24 09:33:10;;;;;;;2.63;1.70;;;;;;;10.67;61.06;94846.44;5007015;28;20209;-80
2023/04/24 09:36:37;;;;;;;1.87;1.70;;;;;;;10.89;62.06;94865.75;4971745;28;20276;-78
2023/04/24 09:39:42;;;;;;;;;;;;;;;;;;;;;
2023/04/24 09:42:37;;;;;;;3.87;1.70;;;;;;;11.73;59.67;94874.66;4890856;29;20225;-79
2023/04/24 10:24:37;;;;;;;2.30;1.77;;;;;;;10.68;58.21;94942.34;4925194;29;20203;-81
2023/04/24 10:28:01;;;;;;;;;;;;;;;;;;;;;
2023/04/24 10:31:03;;;;;;;;;;;;;;;;;;;;;
2023/04/24 10:33:34;;;;;;;3.67;1.77;;;;;;;10.65;58.83;94947.06;4907449;29;20221;-83
2023/04/24 10:36:02;;;;;;;3.70;2.27;;;;;;;10.41;59.09;94953.06;4910947;29;20208;-81
2023/04/24 10:38:39;;;;;;;2.30;1.87;;;;;;;10.26;58.83;94968.47;4902015;29;20214;-81
2023/04/24 10:41:23;;;;;;;2.20;1.93;;;;;;;10.28;60.20;94960.50;4913892;29;20681;-80
2023/04/24 10:44:46;;;;;;;3.10;1.63;;;;;;;10.26;60.25;94959.88;4916893;29;20195;-82
2023/04/24 10:47:33;;;;;;;4.87;1.93;;;;;;;10.30;62.87;94963.75;4907637;29;20524;-81
2023/04/24 10:50:27;;;;;;;3.07;1.83;;;;;;;11.07;60.22;94952.88;4893776;29;20286;-82
2023/04/24 10:56:05;;;;;;;2.73;2.40;;;;;;;12.00;54.87;94952.28;4989667;28;20285;-82
2023/04/24 10:58:55;;;;;;;4.73;1.80;;;;;;;12.69;53.86;94960.13;4976752;28;20227;-82
2023/04/24 11:01:40;;;;;;;1.70;1.60;;;;;;;12.42;52.73;94962.28;5005885;28;20609;-81
2023/04/24 11:04:42;;;;;;;3.03;1.60;;;;;;;11.79;54.57;94963.25;5029772;28;20190;-82
2023/04/24 11:07:29;;;;;;;;;;;;;;;;;;;;;
2023/04/24 11:10:10;;;;;;;2.80;1.90;;;;;;;11.37;55.24;94973.13;5043652;28;20194;-81
2023/04/24 11:29:27;;;;;;;;;;;;;;;;;;;;;
2023/04/24 11:31:58;;;;;;;3.67;1.90;;;;;;;12.95;54.24;94965.78;5021531;28;20668;-81
2023/04/24 11:35:34;;;;;;;;;;;;;;;;;;;;;
2023/04/24 11:38:16;;;;;;;2.93;2.37;;;;;;;11.41;55.73;94980.44;4948089;28;20228;-81
2023/04/24 11:41:28;;;;;;;;;;;;;;;;;;;;;
2023/04/24 12:10:04;;;;;;;2.97;1.73;;;;;;;12.38;54.13;94999.25;5075025;23;20722;-81
2023/04/24 12:22:14;;;;;;;2.53;1.80;;;;;;;11.22;65.43;95035.38;4911826;29;20289;-80
2023/04/24 12:25:01;;;;;;;1.50;1.40;;;;;;;11.21;67.29;95038.94;4918436;29;20258;-79
2023/04/24 12:27:31;;;;;;;2.90;1.80;;;;;;;11.67;66.43;95034.81;4886679;29;20219;-79
2023/04/24 12:29:58;;;;;;;1.83;1.63;;;;;;;11.52;68.31;95037.28;4900307;29;20194;-79
2023/04/24 12:32:25;;;;;;;5.00;2.00;;;;;;;11.46;65.85;95029.31;4899183;29;20261;-79
2023/04/24 12:34:51;;;;;;;2.70;2.50;;;;;;;11.22;65.40;95032.75;4898573;29;20327;-79
2023/04/24 12:37:16;;;;;;;2.50;2.20;;;;;;;11.73;66.51;95023.72;4894665;29;20202;-79
2023/04/24 12:40:07;;;;;;;3.23;2.80;;;;;;;11.50;65.41;95022.84;4886017;29;20254;-80
2023/04/24 12:42:32;;;;;;;3.07;2.77;;;;;;;11.26;65.54;95016.69;4897243;29;20195;-79
2023/04/24 12:45:00;;;;;;;3.20;2.80;;;;;;;11.73;65.92;95018.53;4883386;29;20652;-80
2023/04/24 12:47:26;;;;;;;3.53;2.90;;;;;;;11.40;65.10;95004.81;4873675;29;20222;-79
2023/04/24 12:49:52;;;;;;;4.53;3.30;;;;;;;11.88;63.18;94993.47;4917873;28;20244;-79
2023/04/24 12:52:19;;;;;;;3.73;3.43;;;;;;;12.47;62.21;95013.84;4968433;28;20188;-79
2023/04/24 12:54:45;;;;;;;4.73;3.40;;;;;;;12.67;61.05;95007.22;5009812;28;20223;-78
2023/04/24 12:57:10;;;;;;;4.70;2.97;;;;;;;12.80;60.14;95008.41;4991457;28;20193;-79
2023/04/24 12:59:36;;;;;;;3.40;3.00;;;;;;;12.72;59.58;95007.50;5012795;28;20191;-79
2023/04/24 13:02:01;;;;;;;4.07;3.03;;;;;;;12.31;58.69;95012.16;4984177;28;20195;-79
2023/04/24 13:04:26;;;;;;;4.10;3.30;;;;;;;12.43;58.65;95022.97;5013396;28;20952;-79
2023/04/24 13:06:52;;;;;;;2.87;2.63;;;;;;;12.55;58.48;95019.03;5011342;28;20182;-79
2023/04/24 13:45:07;;;;;;;3.37;2.33;;;;;;;13.33;53.33;95023.97;5039759;28;20272;-80
2023/04/24 13:47:33;;;;;;;3.00;2.67;;;;;;;13.41;52.83;95017.06;5030421;28;20206;-80
2023/04/24 13:50:00;;;;;;;3.63;2.40;;;;;;;13.39;52.65;95027.66;5013091;28;20195;-81
2023/04/24 13:52:26;;;;;;;2.83;2.53;;;;;;;12.95;52.28;95017.91;5021882;28;20731;-80
2023/04/24 14:15:27;;;;;;;5.40;2.80;;;;;;;11.35;59.28;95020.09;5012389;28;20216;-84
2023/04/24 14:54:14;;;;;;;3.27;2.83;;;;;;;10.35;72.52;95014.22;4993034;26;20459;-84
2023/04/24 14:57:17;;;;;;;;;;;;;;;;;;;;;
2023/04/24 15:00:19;;;;;;;;;;;;;;;;;;;;;
2023/04/24 15:03:11;;;;;;;2.97;2.60;;;;;;;10.89;68.49;95009.41;4967592;28;20263;-84
2023/04/24 15:06:07;;;;;;;2.83;2.33;;;;;;;10.67;68.21;95004.84;4963252;28;20279;-84
2023/04/24 15:09:10;;;;;;;2.77;2.57;;;;;;;10.45;68.09;95008.88;4964059;28;20219;-83
2023/04/24 15:15:45;;;;;;;;;;;;;;;;;;;;;
2023/04/24 15:21:23;;;;;;;2.53;2.00;;;;;;;10.21;67.69;95009.59;4854309;29;20220;-79
2023/04/24 15:23:48;;;;;;;4.00;2.37;;;;;;;10.53;66.53;94998.50;4842923;29;20675;-84
2023/04/24 15:26:22;;;;;;;2.70;1.87;;;;;;;10.59;66.17;95008.25;4838581;29;20204;-85
2023/04/24 17:19:54;;;;;;;2.27;2.07;;;;;;;10.55;60.43;94988.78;5170356;23;20739;-83
2023/04/24 17:22:20;;;;;;;6.00;2.80;;;;;;;10.63;59.94;94990.56;4969362;28;20186;-84
2023/04/24 17:24:45;;;;;;;2.73;2.10;;;;;;;10.46;60.52;94992.34;4947930;28;20180;-82
2023/04/24 17:27:11;;;;;;;3.30;2.50;;;;;;;10.41;61.55;95003.19;4963056;28;20214;-83
2023/04/24 17:29:36;;;;;;;4.40;2.40;;;;;;;10.44;61.16;94997.69;4968772;28;20185;-84
2023/04/24 17:32:04;;;;;;;2.93;2.63;;;;;;;10.65;60.87;94992.03;4988945;28;20180;-83
2023/04/24 17:34:30;;;;;;;6.13;3.77;;;;;;;10.36;61.18;94996.88;4970576;28;20575;-85
2023/04/24 17:36:58;;;;;;;5.80;3.93;;;;;;;10.43;61.32;95001.25;4952571;28;20192;-84
2023/04/24 17:39:23;;;;;;;4.73;3.40;;;;;;;10.43;62.05;94998.66;4962109;28;20184;-84
2023/04/24 17:41:51;;;;;;;4.00;2.90;;;;;;;10.47;61.90;95001.75;4953102;28;20201;-84
2023/04/24 17:44:20;;;;;;;3.50;3.20;;;;;;;10.41;62.31;95004.97;4950019;28;20180;-85
2023/04/24 17:46:47;;;;;;;3.17;2.80;;;;;;;10.35;63.24;95003.84;4966103;28;20189;-85
2023/04/24 17:49:13;;;;;;;3.47;2.30;;;;;;;10.45;62.87;95006.28;4970046;28;20212;-79
2023/04/24 17:51:49;;;;;;;4.10;2.57;;;;;;;10.38;63.39;95006.09;4967589;28;20200;-84
2023/04/24 17:54:24;;;;;;;4.77;3.87;;;;;;;10.48;63.19;95014.56;4951609;28;20244;-84
2023/04/24 18:43:49;;;;;;;;;;;;;;;;;;;;;
2023/04/24 18:46:42;;;;;;;3.27;2.93;;;;;;;9.33;70.48;95028.00;4974784;28;20188;-82
2023/04/24 18:49:24;;;;;;;4.17;3.37;;;;;;;9.22;70.51;95030.06;4974931;28;20705;-80
2023/04/24 18:51:58;;;;;;;3.37;3.00;;;;;;;9.21;70.44;95038.78;4955369;28;20198;-81
2023/04/24 18:54:33;;;;;;;4.10;2.83;;;;;;;9.25;69.90;95035.72;4937481;28;20217;-83
2023/04/24 18:57:10;;;;;;;3.60;2.73;;;;;;;9.12;70.41;95030.16;4972056;28;20538;-82
2023/04/24 18:59:37;;;;;;;4.73;2.70;;;;;;;9.15;70.24;95034.19;4942048;28;20207;-80
2023/04/24 19:02:14;;;;;;;2.80;2.30;;;;;;;9.15;70.34;95045.38;4941762;28;20218;-80
2023/04/24 19:04:42;;;;;;;5.43;2.77;;;;;;;9.01;70.92;95040.72;4954006;28;20196;-81
2023/04/24 19:07:11;;;;;;;5.07;2.80;;;;;;;9.05;70.56;95036.88;4934732;28;20235;-80
2023/04/24 19:09:44;;;;;;;7.90;5.00;;;;;;;9.14;70.13;95043.75;4941595;28;20284;-81
2023/04/24 19:12:10;;;;;;;4.57;2.70;;;;;;;8.91;70.64;95048.56;4929276;29;20205;-81
2023/04/24 19:14:38;;;;;;;2.53;2.33;;;;;;;9.03;70.12;95046.59;4917261;29;20342;-80
2023/04/24 19:17:09;;;;;;;3.47;2.60;;;;;;;8.95;70.20;95043.94;4916766;29;20202;-82
2023/04/24 19:19:40;;;;;;;3.40;2.47;;;;;;;8.79;70.37;95042.00;4914343;29;20225;-82
2023/04/24 19:22:11;;;;;;;3.20;2.13;;;;;;;8.86;70.28;95052.59;4925581;29;20202;-82
2023/04/24 19:24:36;;;;;;;4.90;2.77;;;;;;;8.70;70.89;95055.84;4900689;29;20948;-82
2023/04/24 19:27:02;;;;;;;3.87;2.50;;;;;;;8.79;70.42;95054.97;4919253;29;20209;-82
2023/04/24 19:29:27;;;;;;;2.67;2.43;;;;;;;8.67;70.61;95059.56;4902017;29;20257;-79
2023/04/24 22:45:15;;;;;;;;;;;;;;;;;;;;;
2023/04/24 22:56:01;;;;;;;;;;;;;;;;;;;;;
2023/04/24 22:59:10;;;;;;;7.70;3.07;;;;;;;7.16;87.01;94980.72;4832183;29;20235;-81
2023/04/24 23:50:19;;;;;;;;;;;;;;;;;;;;;
2023/04/24 23:57:03;;;;;;;4.97;3.63;;;;;;;7.14;87.74;94950.78;4774311;29;20925;-80
